Time;durP1;ratioP1;P1;durP2;ratioP2;P2;SDS_P1;SDS_P2;PMS_P1;PMS_P2;Temp;Humidity;BMP_temperature;BMP_pressure;BME280_temperature;BME280_humidity;BME280_pressure;Samples;Min_cycle;Max_cycle;Signal;HPM_P1;HPM_P2
2023/07/20 00:01:49;;;;;;;9.27;2.85;;;;;;;23.66;73.53;94320.97;5106361;28;20547;-43
2023/07/20 00:04:17;;;;;;;6.80;2.78;;;;;;;23.80;74.22;94335.41;5090205;28;20189;-43
2023/07/20 00:06:44;;;;;;;6.90;2.83;;;;;;;23.83;75.39;94334.13;5089579;28;20210;-42
2023/07/20 00:09:11;;;;;;;7.15;3.15;;;;;;;23.83;75.98;94331.53;5071789;28;20186;-43
2023/07/20 00:11:38;;;;;;;8.27;3.58;;;;;;;23.86;75.09;94331.06;5089612;28;20194;-43
2023/07/20 00:14:05;;;;;;;9.95;2.95;;;;;;;23.85;72.49;94327.69;5089404;28;20631;-43
2023/07/20 00:16:32;;;;;;;5.60;2.90;;;;;;;23.91;71.11;94344.25;5089519;28;20193;-42
2023/07/20 00:18:59;;;;;;;7.65;2.80;;;;;;;23.97;69.96;94345.97;5089391;28;20684;-42
2023/07/20 00:21:27;;;;;;;5.70;3.08;;;;;;;24.00;69.72;94340.25;5089373;28;20189;-43
2023/07/20 00:23:54;;;;;;;8.60;3.22;;;;;;;24.08;69.02;94352.19;5089089;28;20242;-46
2023/07/20 00:26:21;;;;;;;6.32;2.90;;;;;;;24.14;68.85;94352.06;5089589;28;20263;-42
2023/07/20 00:28:51;;;;;;;7.65;3.45;;;;;;;24.16;69.01;94347.38;5088938;28;20251;-42
2023/07/20 00:31:17;;;;;;;10.52;3.10;;;;;;;24.17;70.60;94356.03;5089067;28;20190;-43
2023/07/20 00:33:44;;;;;;;8.13;3.15;;;;;;;24.18;70.77;94358.41;5089011;28;20190;-43
2023/07/20 00:36:11;;;;;;;11.43;2.70;;;;;;;24.19;70.40;94360.00;5089409;28;20303;-43
2023/07/20 00:38:40;;;;;;;7.05;2.90;;;;;;;24.20;70.03;94356.34;5088614;28;20327;-42
2023/07/20 00:41:07;;;;;;;6.28;2.80;;;;;;;24.15;69.09;94342.41;5089180;28;20208;-42
2023/07/20 00:43:34;;;;;;;9.75;3.53;;;;;;;24.27;69.72;94354.41;5088647;28;20200;-42
2023/07/20 00:46:02;;;;;;;7.25;3.50;;;;;;;24.27;71.14;94345.78;5088813;28;20220;-43
2023/07/20 00:48:30;;;;;;;7.60;2.60;;;;;;;24.26;72.45;94344.19;5093620;28;20272;-44
2023/07/20 00:50:57;;;;;;;8.98;3.63;;;;;;;24.23;72.94;94335.00;5093024;28;20661;-43
2023/07/20 00:53:24;;;;;;;4.30;2.72;;;;;;;24.22;72.89;94338.66;5093431;28;20212;-43
2023/07/20 00:55:52;;;;;;;10.98;3.50;;;;;;;24.21;73.55;94331.81;5093067;28;20197;-43
2023/07/20 00:58:19;;;;;;;7.28;3.30;;;;;;;24.23;74.07;94327.16;5093285;28;20186;-43
2023/07/20 01:00:47;;;;;;;4.60;2.97;;;;;;;24.21;73.28;94331.03;5092784;28;20563;-43
2023/07/20 01:03:13;;;;;;;6.40;3.17;;;;;;;24.09;73.15;94311.94;5093211;28;20224;-44
2023/07/20 01:05:47;;;;;;;10.38;3.67;;;;;;;24.13;74.22;94321.72;5092760;28;20688;-45
2023/07/20 01:08:24;;;;;;;7.60;3.15;;;;;;;24.10;73.32;94330.03;5092649;28;20741;-44
2023/07/20 01:11:04;;;;;;;6.07;3.40;;;;;;;24.03;72.93;94334.56;5092762;28;20546;-43
2023/07/20 01:13:31;;;;;;;7.72;3.40;;;;;;;23.96;73.37;94337.31;5093208;28;20277;-43
2023/07/20 01:15:59;;;;;;;9.02;3.65;;;;;;;23.89;74.61;94323.59;5092631;28;20196;-42
2023/07/20 01:18:26;;;;;;;8.13;3.20;;;;;;;23.86;75.63;94325.84;5092629;28;20508;-43
2023/07/20 01:20:58;;;;;;;10.23;3.10;;;;;;;23.80;76.35;94332.78;5092558;28;20186;-44
2023/07/20 01:23:48;;;;;;;11.38;3.05;;;;;;;23.63;76.34;94330.03;5093175;28;20196;-42
2023/07/20 01:26:38;;;;;;;4.57;3.03;;;;;;;23.62;76.13;94327.63;5092975;28;20213;-43
2023/07/20 01:29:23;;;;;;;4.40;2.92;;;;;;;23.55;76.80;94333.00;5092471;28;20221;-42
2023/07/20 01:31:54;;;;;;;3.00;2.72;;;;;;;23.50;76.66;94338.09;5092528;28;20640;-42
2023/07/20 01:34:24;;;;;;;10.73;3.80;;;;;;;23.52;77.46;94343.88;5092081;28;20281;-43
2023/07/20 01:36:53;;;;;;;6.45;2.85;;;;;;;23.49;77.27;94339.13;5092331;28;20186;-43
2023/07/20 01:39:22;;;;;;;6.40;3.58;;;;;;;23.43;77.19;94335.59;5092289;28;20194;-44
2023/07/20 01:41:49;;;;;;;10.57;3.00;;;;;;;23.36;77.84;94337.53;5092326;28;20224;-43
2023/07/20 01:44:16;;;;;;;8.27;3.33;;;;;;;23.33;78.26;94327.53;5092155;28;20540;-43
2023/07/20 01:46:43;;;;;;;6.30;2.90;;;;;;;23.31;78.72;94332.16;5092466;28;20221;-44
2023/07/20 01:49:11;;;;;;;8.85;3.08;;;;;;;23.26;79.21;94330.22;5092844;28;20190;-43
2023/07/20 01:51:38;;;;;;;8.05;3.05;;;;;;;23.24;79.47;94328.88;5092641;28;20181;-44
2023/07/20 01:54:05;;;;;;;8.40;3.17;;;;;;;23.22;79.88;94330.91;5091922;28;20614;-43
2023/07/20 01:56:31;;;;;;;16.52;3.83;;;;;;;23.17;79.97;94328.97;5092518;28;20194;-44
2023/07/20 01:58:58;;;;;;;14.18;3.08;;;;;;;23.16;80.04;94337.81;5090770;28;20194;-43
2023/07/20 02:01:25;;;;;;;10.15;3.55;;;;;;;23.13;80.49;94329.66;5092122;28;20235;-45
2023/07/20 02:03:52;;;;;;;8.73;3.40;;;;;;;23.06;81.23;94331.56;5091938;28;20201;-43
2023/07/20 02:06:20;;;;;;;8.18;3.25;;;;;;;22.99;81.68;94332.47;5092112;28;20221;-44
2023/07/20 02:08:47;;;;;;;9.00;3.50;;;;;;;22.96;82.14;94332.09;5091637;28;20190;-42
2023/07/20 02:11:13;;;;;;;9.00;3.92;;;;;;;22.93;82.43;94322.13;5091463;28;20251;-42
2023/07/20 02:13:40;;;;;;;5.78;3.25;;;;;;;22.93;82.38;94322.94;5073774;28;20275;-43
2023/07/20 02:16:07;;;;;;;8.10;3.35;;;;;;;22.88;82.64;94325.34;5091411;28;20602;-42
2023/07/20 02:18:35;;;;;;;13.07;3.90;;;;;;;22.79;83.20;94318.88;5092094;28;20190;-43
2023/07/20 02:21:02;;;;;;;6.47;3.03;;;;;;;22.76;83.43;94325.34;5091486;28;20626;-42
2023/07/20 02:23:30;;;;;;;7.47;3.25;;;;;;;22.73;83.12;94324.97;5091428;28;20211;-43
2023/07/20 02:25:57;;;;;;;8.00;2.80;;;;;;;22.70;83.49;94322.81;5091362;28;20300;-44
2023/07/20 02:28:24;;;;;;;8.27;3.67;;;;;;;22.65;83.49;94323.47;5091240;28;20198;-41
2023/07/20 02:30:51;;;;;;;7.20;3.22;;;;;;;22.66;83.47;94327.66;5090983;28;20185;-44
2023/07/20 02:33:18;;;;;;;11.52;3.90;;;;;;;22.64;83.51;94321.91;5091610;28;20264;-43
2023/07/20 02:35:45;;;;;;;9.10;3.58;;;;;;;22.55;83.69;94312.81;5091118;28;20182;-43
2023/07/20 02:38:11;;;;;;;7.25;3.03;;;;;;;22.53;83.53;94315.59;5091404;28;20657;-44
2023/07/20 02:40:40;;;;;;;6.28;3.33;;;;;;;22.52;83.48;94308.81;5091419;28;20181;-44
2023/07/20 02:43:06;;;;;;;6.10;3.63;;;;;;;22.48;83.98;94304.25;5091586;28;20193;-43
2023/07/20 02:45:33;;;;;;;15.02;3.45;;;;;;;22.39;83.75;94292.56;5091259;28;20189;-43
2023/07/20 02:48:00;;;;;;;6.45;3.03;;;;;;;22.39;84.01;94302.97;5091174;28;20221;-42
2023/07/20 02:50:27;;;;;;;5.60;3.17;;;;;;;22.36;84.17;94293.78;5091024;28;20189;-44
2023/07/20 02:52:54;;;;;;;4.68;3.15;;;;;;;22.37;84.20;94289.38;5090800;28;20202;-42
2023/07/20 02:55:21;;;;;;;8.35;3.55;;;;;;;22.35;84.25;94297.41;5091027;28;20254;-44
2023/07/20 02:57:49;;;;;;;5.63;2.92;;;;;;;22.32;84.04;94295.22;5090656;28;20197;-43
2023/07/20 03:00:17;;;;;;;7.82;3.47;;;;;;;22.34;83.97;94295.81;5090804;28;20196;-44
2023/07/20 03:02:47;;;;;;;8.45;2.92;;;;;;;22.29;83.74;94293.88;5090900;28;20201;-45
2023/07/20 03:05:14;;;;;;;6.70;2.97;;;;;;;22.29;83.45;94296.50;5090634;28;20198;-44
2023/07/20 03:07:43;;;;;;;11.68;3.50;;;;;;;22.29;83.57;94299.09;5090634;28;20221;-42
2023/07/20 03:10:10;;;;;;;9.80;3.28;;;;;;;22.29;83.49;94295.69;5090674;28;20186;-42
2023/07/20 03:12:37;;;;;;;9.57;3.50;;;;;;;22.11;84.18;94275.66;5090872;28;20186;-42
2023/07/20 03:15:07;;;;;;;13.85;4.05;;;;;;;22.26;84.24;94309.94;5090620;28;20290;-44
2023/07/20 03:17:34;;;;;;;7.45;3.50;;;;;;;22.25;84.18;94303.16;5090881;28;20186;-45
2023/07/20 03:20:02;;;;;;;7.57;3.03;;;;;;;22.25;84.43;94312.78;5090921;28;20190;-43
2023/07/20 03:22:29;;;;;;;9.13;3.97;;;;;;;22.27;84.45;94314.13;5090595;28;20220;-43
2023/07/20 03:24:56;;;;;;;5.07;3.58;;;;;;;22.27;84.17;94305.53;5090624;28;20691;-44
2023/07/20 03:27:22;;;;;;;10.40;3.45;;;;;;;22.35;84.28;94323.47;5090375;28;20229;-44
2023/07/20 03:29:49;;;;;;;7.60;3.33;;;;;;;22.40;84.10;94328.81;5090172;28;20234;-43
2023/07/20 03:32:18;;;;;;;10.13;3.80;;;;;;;22.41;84.42;94324.38;5090627;28;20186;-44
2023/07/20 03:34:45;;;;;;;5.80;3.83;;;;;;;22.38;84.94;94317.81;5090156;28;20197;-44
2023/07/20 03:37:12;;;;;;;11.40;3.80;;;;;;;22.44;84.63;94311.72;5091460;28;20649;-46
2023/07/20 03:39:39;;;;;;;11.15;3.75;;;;;;;22.47;84.54;94315.72;5090844;28;20600;-44
2023/07/20 03:42:07;;;;;;;10.98;4.07;;;;;;;22.54;84.00;94319.81;5090064;28;20637;-44
2023/07/20 03:44:33;;;;;;;8.35;3.92;;;;;;;22.58;83.96;94322.75;5089917;28;20186;-42
2023/07/20 03:47:00;;;;;;;7.03;3.75;;;;;;;22.65;83.26;94315.66;5090222;28;20228;-44
2023/07/20 03:49:29;;;;;;;6.32;3.90;;;;;;;22.71;82.44;94319.19;5090157;28;20220;-44
2023/07/20 03:51:55;;;;;;;11.23;3.80;;;;;;;22.81;82.07;94331.69;5090252;28;20182;-42
2023/07/20 03:54:22;;;;;;;4.88;3.70;;;;;;;22.86;81.29;94319.59;5090028;28;20196;-43
2023/07/20 03:56:49;;;;;;;8.38;4.50;;;;;;;22.91;80.86;94322.34;5090200;28;20197;-43
2023/07/20 03:59:17;;;;;;;8.90;4.00;;;;;;;23.01;80.12;94324.41;5090574;28;20618;-44
2023/07/20 04:01:44;;;;;;;9.90;4.10;;;;;;;23.08;80.01;94332.13;5090316;28;20186;-46
2023/07/20 04:04:11;;;;;;;11.10;4.43;;;;;;;23.12;79.45;94325.47;5090250;28;20209;-42
2023/07/20 04:06:39;;;;;;;14.52;3.97;;;;;;;23.22;78.60;94323.09;5089631;28;20218;-42
2023/07/20 04:09:06;;;;;;;11.98;4.35;;;;;;;23.26;78.42;94308.56;5089860;28;20263;-44
2023/07/20 04:11:33;;;;;;;7.32;3.75;;;;;;;23.37;77.82;94307.78;5089568;28;20178;-44
2023/07/20 04:13:59;;;;;;;7.90;4.15;;;;;;;23.48;77.98;94314.03;5089815;28;20284;-44
2023/07/20 04:16:27;;;;;;;12.98;3.75;;;;;;;23.56;77.88;94299.84;5089556;28;20201;-43
2023/07/20 04:18:55;;;;;;;8.40;3.80;;;;;;;23.42;77.81;94275.78;5089700;28;20246;-43
2023/07/20 04:21:23;;;;;;;9.18;4.20;;;;;;;23.71;76.93;94311.47;5088994;28;20258;-43
2023/07/20 04:23:51;;;;;;;11.93;4.03;;;;;;;23.75;76.30;94309.97;5089933;28;20293;-45
2023/07/20 04:26:18;;;;;;;9.13;4.15;;;;;;;23.77;76.08;94300.09;5089269;28;20190;-45
2023/07/20 04:28:44;;;;;;;9.50;4.43;;;;;;;23.86;75.45;94297.13;5089609;28;20735;-43
2023/07/20 04:31:12;;;;;;;6.07;4.00;;;;;;;23.95;74.94;94300.97;5089556;28;20196;-45
2023/07/20 04:33:39;;;;;;;12.43;4.38;;;;;;;24.04;74.26;94303.00;5090176;28;20285;-44
2023/07/20 04:36:07;;;;;;;7.68;3.90;;;;;;;24.18;73.86;94306.16;5089893;28;20200;-45
2023/07/20 04:38:34;;;;;;;9.25;3.58;;;;;;;24.23;73.36;94295.81;5090134;28;20198;-45
2023/07/20 04:41:02;;;;;;;8.00;3.38;;;;;;;24.32;72.55;94298.06;5089802;28;20661;-45
2023/07/20 04:43:30;;;;;;;4.95;3.90;;;;;;;24.30;72.36;94300.88;5089518;28;20185;-43
2023/07/20 04:45:58;;;;;;;8.15;3.78;;;;;;;24.32;72.38;94293.63;5089510;28;20859;-44
2023/07/20 04:48:25;;;;;;;8.90;4.03;;;;;;;24.40;71.60;94301.13;5089554;28;20217;-44
2023/07/20 04:50:52;;;;;;;6.63;3.58;;;;;;;24.48;71.44;94297.31;5089514;28;20193;-43
2023/07/20 04:53:18;;;;;;;16.20;3.78;;;;;;;24.57;70.92;94297.75;5089381;28;20197;-44
2023/07/20 04:55:51;;;;;;;6.03;3.70;;;;;;;24.60;70.46;94298.06;5089591;28;20193;-45
2023/07/20 04:58:20;;;;;;;10.73;3.67;;;;;;;24.54;69.76;94272.88;5089366;28;20181;-43
2023/07/20 05:00:47;;;;;;;9.55;3.72;;;;;;;24.77;69.67;94296.28;5090022;28;20209;-44
2023/07/20 05:03:14;;;;;;;8.27;3.70;;;;;;;24.83;69.25;94302.41;5089551;28;20366;-43
2023/07/20 05:05:41;;;;;;;8.35;3.95;;;;;;;24.88;69.91;94299.09;5089960;28;20193;-45
2023/07/20 05:08:08;;;;;;;10.45;3.58;;;;;;;25.02;68.69;94295.13;5089175;28;20225;-46
2023/07/20 05:10:34;;;;;;;8.75;3.83;;;;;;;25.11;68.65;94292.94;5089892;28;20584;-45
2023/07/20 05:13:01;;;;;;;6.90;3.88;;;;;;;25.19;68.23;94303.03;5089472;28;20336;-43
2023/07/20 05:15:29;;;;;;;8.35;2.92;;;;;;;25.37;68.33;94307.22;5089306;28;20577;-43
2023/07/20 05:17:56;;;;;;;7.38;3.47;;;;;;;25.58;67.60;94303.88;5089341;28;20672;-43
2023/07/20 05:20:23;;;;;;;11.90;4.03;;;;;;;25.87;66.36;94309.03;5089425;28;20193;-44
2023/07/20 05:22:50;;;;;;;7.00;3.80;;;;;;;26.24;64.80;94307.38;5089268;28;20697;-44
2023/07/20 05:25:18;;;;;;;6.45;3.72;;;;;;;26.59;63.53;94308.84;5089278;28;20572;-43
2023/07/20 05:27:46;;;;;;;7.93;3.58;;;;;;;26.92;62.49;94302.59;5090648;28;20260;-44
2023/07/20 05:30:13;;;;;;;10.82;3.92;;;;;;;27.36;61.08;94317.44;5089144;28;20283;-43
2023/07/20 05:32:41;;;;;;;4.95;3.35;;;;;;;27.74;60.02;94322.47;5090177;28;20829;-44
2023/07/20 05:35:11;;;;;;;11.93;3.67;;;;;;;28.08;58.58;94327.38;5092875;28;20186;-42
2023/07/20 05:37:38;;;;;;;10.77;3.97;;;;;;;28.30;57.27;94314.06;5092729;28;20200;-45
2023/07/20 05:40:06;;;;;;;7.22;3.83;;;;;;;28.61;56.14;94319.44;5092774;28;20663;-44
2023/07/20 05:42:32;;;;;;;5.95;2.60;;;;;;;28.94;54.17;94326.91;5092371;28;20281;-44
2023/07/20 05:44:59;;;;;;;4.90;3.17;;;;;;;29.20;53.04;94337.50;5092711;28;20649;-44
2023/07/20 05:47:26;;;;;;;11.02;3.70;;;;;;;29.31;53.13;94333.78;5092705;28;20688;-43
2023/07/20 05:49:54;;;;;;;10.45;3.72;;;;;;;29.56;52.05;94335.66;5092469;28;20190;-44
2023/07/20 05:52:21;;;;;;;11.82;3.65;;;;;;;29.67;51.44;94337.25;5092436;28;20592;-43
2023/07/20 05:54:48;;;;;;;7.57;2.97;;;;;;;29.96;51.06;94337.44;5092755;28;20194;-44
2023/07/20 05:57:14;;;;;;;9.73;2.95;;;;;;;30.25;50.25;94339.50;5092672;28;20197;-44
2023/07/20 05:59:44;;;;;;;6.57;3.38;;;;;;;30.48;49.52;94330.16;5092696;28;20685;-44
2023/07/20 06:02:10;;;;;;;8.88;3.60;;;;;;;30.75;49.22;94327.19;5092521;28;20214;-44
2023/07/20 06:04:37;;;;;;;4.75;3.20;;;;;;;31.02;48.41;94329.38;5092522;28;20306;-46
2023/07/20 06:07:07;;;;;;;11.00;3.85;;;;;;;31.13;48.30;94328.25;5092022;28;20664;-44
2023/07/20 06:09:34;;;;;;;8.45;3.80;;;;;;;31.13;48.51;94317.69;5092771;28;20178;-44
2023/07/20 06:12:01;;;;;;;8.02;3.72;;;;;;;31.32;48.14;94327.63;5092430;28;20185;-44
2023/07/20 06:14:27;;;;;;;7.03;3.13;;;;;;;31.44;47.94;94306.91;5092351;28;20191;-44
2023/07/20 06:16:54;;;;;;;12.18;3.92;;;;;;;31.65;47.58;94324.16;5092494;28;20494;-44
2023/07/20 06:19:22;;;;;;;11.80;4.07;;;;;;;31.47;47.17;94316.91;5092543;28;20186;-48
2023/07/20 06:21:49;;;;;;;8.27;3.42;;;;;;;31.35;47.54;94312.00;5092147;28;20186;-43
2023/07/20 06:24:17;;;;;;;7.28;3.60;;;;;;;31.12;48.39;94310.03;5092408;28;20240;-43
2023/07/20 06:26:44;;;;;;;9.80;4.07;;;;;;;30.91;48.85;94302.25;5092301;28;20193;-44
2023/07/20 06:29:11;;;;;;;8.45;4.20;;;;;;;30.82;49.28;94303.09;5091930;28;20233;-44
2023/07/20 06:31:38;;;;;;;11.05;4.05;;;;;;;30.64;49.33;94281.53;5091688;28;20189;-46
2023/07/20 06:34:05;;;;;;;14.05;4.22;;;;;;;30.86;49.16;94298.84;5091850;28;20197;-45
2023/07/20 06:36:35;;;;;;;13.75;4.45;;;;;;;31.12;49.36;94304.75;5073634;28;20197;-44
2023/07/20 06:39:02;;;;;;;12.77;4.43;;;;;;;31.15;48.77;94299.69;5091996;28;20288;-44
2023/07/20 06:41:30;;;;;;;8.23;3.40;;;;;;;31.39;48.12;94299.00;5091762;28;20296;-44
2023/07/20 06:43:58;;;;;;;12.27;4.05;;;;;;;31.46;47.92;94299.47;5091430;28;20190;-44
2023/07/20 06:46:26;;;;;;;10.93;3.90;;;;;;;31.47;47.30;94301.84;5091898;28;20197;-44
2023/07/20 06:48:53;;;;;;;10.43;4.50;;;;;;;31.66;47.61;94298.50;5091492;28;20743;-45
2023/07/20 06:51:20;;;;;;;10.05;4.03;;;;;;;31.51;47.07;94288.84;5073825;28;20243;-46
2023/07/20 06:53:47;;;;;;;8.75;4.13;;;;;;;31.65;48.14;94303.03;5091715;28;20563;-44
2023/07/20 06:56:14;;;;;;;9.20;3.92;;;;;;;31.93;47.06;94304.06;5091607;28;20231;-45
2023/07/20 06:58:42;;;;;;;8.15;3.90;;;;;;;32.06;46.11;94317.69;5091415;28;20240;-43
2023/07/20 07:01:09;;;;;;;11.07;3.92;;;;;;;32.16;45.99;94328.16;5091727;28;20186;-44
2023/07/20 07:03:36;;;;;;;14.30;4.20;;;;;;;32.20;45.70;94326.53;5091033;28;20315;-44
2023/07/20 07:06:03;;;;;;;11.82;4.55;;;;;;;32.16;44.84;94339.53;5091617;28;20186;-44
2023/07/20 07:08:30;;;;;;;7.55;3.92;;;;;;;31.93;45.68;94332.38;5090995;28;20723;-44
2023/07/20 07:10:57;;;;;;;8.10;3.50;;;;;;;31.85;45.88;94333.00;5091372;28;20178;-45
2023/07/20 07:13:24;;;;;;;8.77;3.67;;;;;;;31.87;45.49;94344.09;5073429;28;20182;-44
2023/07/20 07:15:53;;;;;;;15.48;4.32;;;;;;;31.75;45.44;94354.22;5090736;28;20220;-44
2023/07/20 07:18:20;;;;;;;10.57;4.20;;;;;;;31.63;45.90;94367.81;5091829;28;20182;-44
2023/07/20 07:20:53;;;;;;;10.80;4.88;;;;;;;31.79;47.38;94369.25;5091351;28;20258;-44
2023/07/20 07:23:20;;;;;;;12.13;4.57;;;;;;;31.77;47.77;94376.66;5091153;28;20193;-44
2023/07/20 07:25:47;;;;;;;12.80;4.30;;;;;;;31.61;47.79;94388.47;5090840;28;20196;-44
2023/07/20 07:28:14;;;;;;;12.35;4.30;;;;;;;31.59;48.16;94385.28;5091107;28;20581;-44
2023/07/20 07:30:42;;;;;;;8.48;4.05;;;;;;;31.83;46.76;94378.25;5090298;28;20233;-44
2023/07/20 07:33:10;;;;;;;8.50;4.30;;;;;;;31.91;46.37;94374.19;5090892;28;20208;-43
2023/07/20 07:35:37;;;;;;;8.45;3.88;;;;;;;31.84;46.68;94366.59;5090685;28;20217;-43
2023/07/20 07:38:05;;;;;;;7.90;4.20;;;;;;;32.01;46.71;94363.53;5091117;28;20189;-45
2023/07/20 07:40:31;;;;;;;6.18;3.70;;;;;;;32.07;47.04;94348.38;5090707;28;20588;-43
2023/07/20 07:42:59;;;;;;;7.30;4.57;;;;;;;32.26;47.69;94359.81;5090687;28;20665;-44
2023/07/20 07:45:26;;;;;;;12.25;4.28;;;;;;;32.47;47.39;94363.84;5090455;28;20190;-45
2023/07/20 07:47:54;;;;;;;12.30;3.95;;;;;;;32.52;46.84;94341.81;5090457;28;20206;-44
2023/07/20 07:50:23;;;;;;;15.57;4.80;;;;;;;32.59;46.40;94326.34;5090568;28;20193;-46
2023/07/20 07:52:50;;;;;;;9.73;3.78;;;;;;;32.61;46.53;94326.09;5090758;28;20189;-45
2023/07/20 07:55:17;;;;;;;12.40;4.40;;;;;;;32.65;46.59;94333.16;5090132;28;20194;-45
2023/07/20 07:57:44;;;;;;;10.48;4.55;;;;;;;32.62;46.01;94328.44;5089858;28;20188;-46
2023/07/20 08:00:14;;;;;;;9.98;4.38;;;;;;;32.58;46.50;94322.13;5090444;28;20194;-44
2023/07/20 08:02:42;;;;;;;8.77;3.83;;;;;;;32.44;46.74;94332.63;5072384;28;20686;-45
2023/07/20 08:05:11;;;;;;;11.07;3.72;;;;;;;32.52;46.73;94355.06;5072447;28;20185;-44
2023/07/20 08:07:39;;;;;;;7.63;4.18;;;;;;;32.29;47.19;94356.59;5072107;28;20656;-45
2023/07/20 08:10:09;;;;;;;13.20;4.30;;;;;;;32.32;47.71;94384.38;5090035;28;20201;-44
2023/07/20 08:12:35;;;;;;;15.02;4.85;;;;;;;32.26;47.49;94385.50;5090180;28;20200;-45
2023/07/20 08:15:02;;;;;;;15.90;3.80;;;;;;;32.33;47.86;94376.13;5090170;28;20569;-45
2023/07/20 08:17:30;;;;;;;11.95;3.40;;;;;;;32.49;48.50;94371.50;5089765;28;20684;-43
2023/07/20 08:19:57;;;;;;;9.93;3.20;;;;;;;32.66;47.68;94384.28;5090303;28;20194;-44
2023/07/20 08:22:24;;;;;;;8.48;3.47;;;;;;;32.68;45.67;94392.72;5089352;28;20197;-45
2023/07/20 08:24:52;;;;;;;9.38;3.42;;;;;;;32.57;45.34;94383.31;5089668;28;20186;-43
2023/07/20 08:27:19;;;;;;;6.85;3.28;;;;;;;32.64;44.85;94384.56;5089743;28;20189;-43
2023/07/20 08:29:45;;;;;;;10.02;2.53;;;;;;;32.65;43.63;94378.19;5089821;28;20248;-44
2023/07/20 08:32:13;;;;;;;9.32;3.03;;;;;;;32.66;43.46;94378.97;5089752;28;20193;-44
2023/07/20 08:34:40;;;;;;;7.30;2.92;;;;;;;32.80;42.93;94395.75;5089619;28;20235;-44
2023/07/20 08:37:09;;;;;;;9.98;3.50;;;;;;;32.77;42.49;94391.00;5089473;28;20213;-46
2023/07/20 08:39:36;;;;;;;6.03;2.78;;;;;;;32.84;43.06;94388.03;5089487;28;20204;-47
2023/07/20 08:42:06;;;;;;;5.53;2.53;;;;;;;32.85;42.28;94395.66;5090138;28;20181;-44
2023/07/20 08:44:34;;;;;;;8.15;2.90;;;;;;;32.88;42.48;94386.38;5089548;28;20246;-47
2023/07/20 08:47:03;;;;;;;8.02;3.13;;;;;;;32.90;42.38;94390.34;5089641;28;20284;-44
2023/07/20 08:49:30;;;;;;;9.93;3.10;;;;;;;32.93;42.24;94391.63;5089435;28;20214;-44
2023/07/20 08:51:58;;;;;;;5.38;3.03;;;;;;;32.93;41.86;94392.41;5089723;28;20198;-46
2023/07/20 08:54:29;;;;;;;12.18;2.88;;;;;;;32.93;42.04;94389.78;5089990;28;20182;-45
2023/07/20 08:56:58;;;;;;;9.82;3.13;;;;;;;32.95;40.72;94385.00;5089988;28;20277;-45
2023/07/20 08:59:28;;;;;;;12.18;3.35;;;;;;;32.83;41.14;94378.50;5089742;28;20189;-43
2023/07/20 09:01:56;;;;;;;8.60;2.78;;;;;;;32.89;41.54;94380.00;5089848;28;20645;-44
2023/07/20 09:04:23;;;;;;;7.85;3.00;;;;;;;32.82;41.56;94351.22;5089444;28;20601;-44
2023/07/20 09:06:50;;;;;;;5.88;2.75;;;;;;;32.96;41.65;94364.56;5089827;28;20182;-44
2023/07/20 09:09:17;;;;;;;4.60;2.67;;;;;;;33.03;40.80;94362.34;5093172;28;20673;-43
2023/07/20 09:11:43;;;;;;;9.25;3.20;;;;;;;32.90;41.72;94365.66;5093852;28;20200;-43
2023/07/20 09:14:11;;;;;;;5.10;2.97;;;;;;;32.85;42.24;94350.63;5093183;28;20204;-44
2023/07/20 09:16:50;;;;;;;6.43;2.80;;;;;;;32.83;42.03;94330.81;5093408;28;20201;-44
2023/07/20 09:19:17;;;;;;;6.30;3.10;;;;;;;33.06;41.79;94351.16;5093175;28;20276;-45
2023/07/20 09:21:47;;;;;;;8.07;2.60;;;;;;;33.14;41.92;94350.53;5093474;28;20255;-45
2023/07/20 09:24:14;;;;;;;7.10;2.85;;;;;;;33.22;40.44;94352.53;5093252;28;20185;-44
2023/07/20 09:26:44;;;;;;;6.05;2.65;;;;;;;33.17;41.15;94349.97;5093089;28;20204;-44
2023/07/20 09:29:12;;;;;;;14.73;3.22;;;;;;;33.29;40.85;94352.19;5092697;28;20735;-43
2023/07/20 09:31:39;;;;;;;8.30;2.50;;;;;;;33.37;40.45;94348.06;5093230;28;20193;-44
2023/07/20 09:34:08;;;;;;;3.10;2.53;;;;;;;33.43;39.77;94355.66;5092853;28;20197;-44
2023/07/20 09:36:37;;;;;;;5.35;2.88;;;;;;;33.49;39.88;94347.66;5093401;28;20204;-45
2023/07/20 09:39:04;;;;;;;11.07;3.35;;;;;;;33.54;40.32;94347.56;5092565;28;20200;-44
2023/07/20 09:41:40;;;;;;;5.72;2.85;;;;;;;33.60;40.99;94346.41;5093300;28;20193;-44
2023/07/20 09:44:10;;;;;;;6.68;3.35;;;;;;;33.62;39.62;94336.28;5074924;28;20591;-45
2023/07/20 09:46:44;;;;;;;5.85;2.95;;;;;;;33.60;39.76;94349.06;5092968;28;20190;-46
2023/07/20 09:49:13;;;;;;;8.93;2.80;;;;;;;33.56;39.82;94346.22;5091958;28;20343;-46
2023/07/20 09:51:40;;;;;;;6.88;2.83;;;;;;;33.61;40.22;94338.16;5092784;28;20194;-44
2023/07/20 09:54:08;;;;;;;10.90;3.42;;;;;;;33.65;38.83;94320.59;5092892;28;20313;-45
2023/07/20 09:56:38;;;;;;;7.60;2.58;;;;;;;33.75;37.38;94314.31;5093146;28;20340;-44
2023/07/20 09:59:05;;;;;;;6.53;2.40;;;;;;;33.48;37.64;94288.53;5092359;28;20193;-44
2023/07/20 10:01:35;;;;;;;8.07;2.67;;;;;;;33.44;37.12;94312.19;5092913;28;20208;-43
2023/07/20 10:04:05;;;;;;;4.35;2.60;;;;;;;33.20;37.88;94324.72;5093020;28;20185;-45
2023/07/20 10:06:34;;;;;;;6.80;3.15;;;;;;;33.02;38.14;94312.28;5092644;28;20232;-45
2023/07/20 10:09:03;;;;;;;7.65;2.97;;;;;;;32.83;39.20;94318.34;5092839;28;20218;-45
2023/07/20 10:11:32;;;;;;;8.35;3.08;;;;;;;32.79;39.31;94324.53;5092267;28;20684;-44
2023/07/20 10:14:00;;;;;;;8.50;2.95;;;;;;;32.79;39.76;94320.00;5092678;28;20609;-45
2023/07/20 10:16:30;;;;;;;4.28;2.03;;;;;;;32.80;39.81;94324.22;5092081;28;20645;-45
2023/07/20 10:19:04;;;;;;;4.85;2.78;;;;;;;32.89;39.80;94324.38;5091576;28;20242;-44
2023/07/20 10:21:34;;;;;;;4.50;2.47;;;;;;;32.92;39.21;94332.56;5091982;28;20565;-43
2023/07/20 10:24:02;;;;;;;5.38;2.40;;;;;;;32.94;38.94;94334.91;5092228;28;20733;-43
2023/07/20 10:26:29;;;;;;;8.50;2.50;;;;;;;32.98;39.41;94330.63;5092036;28;20204;-44
2023/07/20 10:28:57;;;;;;;4.22;2.55;;;;;;;32.91;39.62;94323.03;5091929;28;20232;-46
2023/07/20 10:31:28;;;;;;;3.53;2.47;;;;;;;32.86;40.00;94315.16;5091800;28;20551;-45
2023/07/20 10:33:57;;;;;;;9.35;2.60;;;;;;;32.89;40.22;94309.25;5092000;28;20182;-46
2023/07/20 10:36:27;;;;;;;6.38;2.85;;;;;;;32.90;40.08;94307.38;5091726;28;20181;-45
2023/07/20 10:38:56;;;;;;;3.95;2.95;;;;;;;32.87;39.85;94315.94;5091968;28;20244;-45
2023/07/20 10:41:29;;;;;;;10.32;2.85;;;;;;;32.77;39.67;94316.06;5092198;28;20557;-46
2023/07/20 10:44:00;;;;;;;5.13;2.60;;;;;;;32.71;40.50;94275.63;5092282;28;20287;-45
2023/07/20 10:46:46;;;;;;;6.78;2.97;;;;;;;32.62;40.49;94234.97;5091660;28;20233;-45
2023/07/20 10:49:15;;;;;;;7.78;2.90;;;;;;;32.52;40.48;94233.25;5091782;28;20206;-45
2023/07/20 10:51:43;;;;;;;6.70;2.75;;;;;;;32.50;39.68;94269.81;5091780;28;20178;-45
2023/07/20 10:54:35;;;;;;;6.15;2.92;;;;;;;32.47;40.58;94273.03;5091971;28;20190;-47
2023/07/20 10:57:24;;;;;;;6.18;3.00;;;;;;;32.54;40.88;94254.16;5091490;28;20197;-43
2023/07/20 10:59:50;;;;;;;9.82;2.70;;;;;;;32.61;40.44;94246.66;5091486;28;20726;-44
2023/07/20 11:02:19;;;;;;;5.20;2.60;;;;;;;32.66;40.83;94238.63;5091812;28;20194;-43
2023/07/20 11:04:47;;;;;;;7.65;2.90;;;;;;;32.70;41.02;94236.97;5091290;28;20661;-44
2023/07/20 11:07:17;;;;;;;10.07;3.20;;;;;;;32.66;41.18;94225.38;5091316;28;20189;-43
2023/07/20 11:09:45;;;;;;;7.35;3.42;;;;;;;32.76;41.25;94230.50;5091344;28;20225;-44
2023/07/20 11:12:14;;;;;;;7.40;2.75;;;;;;;32.92;41.12;94228.44;5091174;28;20653;-45
2023/07/20 11:14:42;;;;;;;8.43;2.85;;;;;;;33.08;41.05;94240.38;5091277;28;20268;-44
2023/07/20 11:17:20;;;;;;;4.78;3.03;;;;;;;33.16;40.36;94234.44;5091152;28;20186;-43
2023/07/20 11:19:49;;;;;;;6.80;3.17;;;;;;;33.28;40.30;94236.59;5091130;28;20235;-44
2023/07/20 11:22:17;;;;;;;7.15;2.92;;;;;;;33.13;41.17;94229.69;5091095;28;20178;-45
2023/07/20 11:24:45;;;;;;;8.20;2.92;;;;;;;33.05;41.63;94225.06;5090852;28;20246;-45
2023/07/20 11:27:12;;;;;;;8.90;3.20;;;;;;;33.01;41.78;94221.41;5091230;28;20178;-45
2023/07/20 11:29:39;;;;;;;8.68;4.03;;;;;;;33.07;42.12;94217.59;5090608;28;20233;-45
2023/07/20 11:32:06;;;;;;;7.95;3.15;;;;;;;33.22;41.81;94221.88;5090724;28;20186;-45
2023/07/20 11:34:35;;;;;;;6.57;3.30;;;;;;;33.31;41.54;94217.47;5090467;28;20254;-44
2023/07/20 11:37:03;;;;;;;9.30;3.58;;;;;;;33.24;41.73;94205.66;5090910;28;20186;-44